sensor_id;sensor_type;location;lat;lon;timestamp;temperature;humidity
68867;SHT30;56451;44.804;20.476;2023-06-19T00:01:34;23.12;53.21
68867;SHT30;56451;44.804;20.476;2023-06-19T00:04:00;23.11;53.19
68867;SHT30;56451;44.804;20.476;2023-06-19T00:06:25;23.10;53.19
68867;SHT30;56451;44.804;20.476;2023-06-19T00:08:51;23.08;53.23
68867;SHT30;56451;44.804;20.476;2023-06-19T00:11:17;23.11;53.08
68867;SHT30;56451;44.804;20.476;2023-06-19T00:13:43;23.12;52.78
68867;SHT30;56451;44.804;20.476;2023-06-19T00:16:09;23.08;52.73
68867;SHT30;56451;44.804;20.476;2023-06-19T00:18:35;23.08;52.77
68867;SHT30;56451;44.804;20.476;2023-06-19T00:21:06;23.04;52.84
68867;SHT30;56451;44.804;20.476;2023-06-19T00:23:33;23.01;53.01
68867;SHT30;56451;44.804;20.476;2023-06-19T00:26:00;23.01;52.89
68867;SHT30;56451;44.804;20.476;2023-06-19T00:28:30;22.98;53.08
68867;SHT30;56451;44.804;20.476;2023-06-19T00:30:56;22.97;53.04
68867;SHT30;56451;44.804;20.476;2023-06-19T00:33:22;22.97;53.02
68867;SHT30;56451;44.804;20.476;2023-06-19T00:35:51;22.97;53.03
68867;SHT30;56451;44.804;20.476;2023-06-19T00:38:17;22.98;53.13
68867;SHT30;56451;44.804;20.476;2023-06-19T00:40:43;22.94;52.92
68867;SHT30;56451;44.804;20.476;2023-06-19T00:43:09;22.94;52.96
68867;SHT30;56451;44.804;20.476;2023-06-19T00:45:36;22.97;52.98
68867;SHT30;56451;44.804;20.476;2023-06-19T00:48:04;22.93;52.93
68867;SHT30;56451;44.804;20.476;2023-06-19T00:50:30;22.90;53.13
68867;SHT30;56451;44.804;20.476;2023-06-19T00:52:57;22.93;53.15
68867;SHT30;56451;44.804;20.476;2023-06-19T00:55:26;22.87;53.18
68867;SHT30;56451;44.804;20.476;2023-06-19T00:57:54;22.86;53.19
68867;SHT30;56451;44.804;20.476;2023-06-19T01:00:20;22.88;53.17
68867;SHT30;56451;44.804;20.476;2023-06-19T01:02:47;22.83;53.12
68867;SHT30;56451;44.804;20.476;2023-06-19T01:05:13;22.81;53.14
68867;SHT30;56451;44.804;20.476;2023-06-19T01:10:12;22.73;53.64
68867;SHT30;56451;44.804;20.476;2023-06-19T01:12:49;22.74;53.61
68867;SHT30;56451;44.804;20.476;2023-06-19T01:15:18;22.71;53.66
68867;SHT30;56451;44.804;20.476;2023-06-19T01:17:45;22.77;53.73
68867;SHT30;56451;44.804;20.476;2023-06-19T01:20:13;22.75;53.63
68867;SHT30;56451;44.804;20.476;2023-06-19T01:22:40;22.74;53.64
68867;SHT30;56451;44.804;20.476;2023-06-19T01:25:10;22.73;53.81
68867;SHT30;56451;44.804;20.476;2023-06-19T01:27:36;22.67;53.90
68867;SHT30;56451;44.804;20.476;2023-06-19T01:30:03;22.67;53.91
68867;SHT30;56451;44.804;20.476;2023-06-19T01:32:41;22.66;53.86
68867;SHT30;56451;44.804;20.476;2023-06-19T01:35:11;22.63;53.82
68867;SHT30;56451;44.804;20.476;2023-06-19T01:37:40;22.60;53.75
68867;SHT30;56451;44.804;20.476;2023-06-19T01:40:08;22.61;53.72
68867;SHT30;56451;44.804;20.476;2023-06-19T01:42:37;22.61;53.63
68867;SHT30;56451;44.804;20.476;2023-06-19T01:45:04;22.59;53.68
68867;SHT30;56451;44.804;20.476;2023-06-19T01:47:30;22.63;53.79
68867;SHT30;56451;44.804;20.476;2023-06-19T01:49:56;22.61;53.66
68867;SHT30;56451;44.804;20.476;2023-06-19T01:52:23;22.60;53.71
68867;SHT30;56451;44.804;20.476;2023-06-19T01:54:51;22.57;54.00
68867;SHT30;56451;44.804;20.476;2023-06-19T01:57:17;22.53;54.18
68867;SHT30;56451;44.804;20.476;2023-06-19T01:59:43;22.50;54.24
68867;SHT30;56451;44.804;20.476;2023-06-19T02:02:10;22.49;54.38
68867;SHT30;56451;44.804;20.476;2023-06-19T02:04:36;22.50;54.34
68867;SHT30;56451;44.804;20.476;2023-06-19T02:07:02;22.47;54.49
68867;SHT30;56451;44.804;20.476;2023-06-19T02:09:29;22.45;54.48
68867;SHT30;56451;44.804;20.476;2023-06-19T02:11:54;22.47;54.52
68867;SHT30;56451;44.804;20.476;2023-06-19T02:14:20;22.45;54.49
68867;SHT30;56451;44.804;20.476;2023-06-19T02:16:47;22.36;54.71
68867;SHT30;56451;44.804;20.476;2023-06-19T02:19:13;22.32;54.75
68867;SHT30;56451;44.804;20.476;2023-06-19T02:21:39;22.35;54.60
68867;SHT30;56451;44.804;20.476;2023-06-19T02:24:05;22.33;54.53
68867;SHT30;56451;44.804;20.476;2023-06-19T02:26:31;22.33;54.38
68867;SHT30;56451;44.804;20.476;2023-06-19T02:28:57;22.37;54.30
68867;SHT30;56451;44.804;20.476;2023-06-19T02:31:23;22.35;54.11
68867;SHT30;56451;44.804;20.476;2023-06-19T02:33:49;22.29;54.24
68867;SHT30;56451;44.804;20.476;2023-06-19T02:36:18;22.29;54.17
68867;SHT30;56451;44.804;20.476;2023-06-19T02:38:49;22.26;54.12
68867;SHT30;56451;44.804;20.476;2023-06-19T02:41:15;22.25;54.35
68867;SHT30;56451;44.804;20.476;2023-06-19T02:43:42;22.22;54.37
68867;SHT30;56451;44.804;20.476;2023-06-19T02:46:09;22.22;54.35
68867;SHT30;56451;44.804;20.476;2023-06-19T02:48:35;22.20;54.33
68867;SHT30;56451;44.804;20.476;2023-06-19T02:51:01;22.23;54.28
68867;SHT30;56451;44.804;20.476;2023-06-19T02:53:27;22.23;54.15
68867;SHT30;56451;44.804;20.476;2023-06-19T02:55:52;22.20;54.42
68867;SHT30;56451;44.804;20.476;2023-06-19T02:58:19;22.20;54.25
68867;SHT30;56451;44.804;20.476;2023-06-19T03:00:46;22.13;54.39
68867;SHT30;56451;44.804;20.476;2023-06-19T03:03:12;22.15;54.43
68867;SHT30;56451;44.804;20.476;2023-06-19T03:05:38;22.20;54.36
68867;SHT30;56451;44.804;20.476;2023-06-19T03:08:04;22.17;54.36
68867;SHT30;56451;44.804;20.476;2023-06-19T03:10:31;22.17;54.42
68867;SHT30;56451;44.804;20.476;2023-06-19T03:12:57;22.15;54.59
68867;SHT30;56451;44.804;20.476;2023-06-19T03:15:25;22.12;54.62
68867;SHT30;56451;44.804;20.476;2023-06-19T03:17:52;22.10;54.76
68867;SHT30;56451;44.804;20.476;2023-06-19T03:20:19;22.09;54.87
68867;SHT30;56451;44.804;20.476;2023-06-19T03:22:56;22.09;54.98
68867;SHT30;56451;44.804;20.476;2023-06-19T03:25:24;22.08;55.15
68867;SHT30;56451;44.804;20.476;2023-06-19T03:27:50;22.06;55.35
68867;SHT30;56451;44.804;20.476;2023-06-19T03:30:16;22.09;55.27
68867;SHT30;56451;44.804;20.476;2023-06-19T03:32:45;22.08;55.24
68867;SHT30;56451;44.804;20.476;2023-06-19T03:35:22;22.10;55.34
68867;SHT30;56451;44.804;20.476;2023-06-19T03:37:48;22.09;55.29
68867;SHT30;56451;44.804;20.476;2023-06-19T03:40:13;22.13;55.28
68867;SHT30;56451;44.804;20.476;2023-06-19T03:42:42;22.16;55.41
68867;SHT30;56451;44.804;20.476;2023-06-19T03:45:08;22.15;55.30
68867;SHT30;56451;44.804;20.476;2023-06-19T03:47:34;22.16;55.21
68867;SHT30;56451;44.804;20.476;2023-06-19T03:50:00;22.17;55.48
68867;SHT30;56451;44.804;20.476;2023-06-19T03:52:27;22.13;55.63
68867;SHT30;56451;44.804;20.476;2023-06-19T03:54:53;22.16;55.62
68867;SHT30;56451;44.804;20.476;2023-06-19T03:57:18;22.15;55.50
68867;SHT30;56451;44.804;20.476;2023-06-19T03:59:44;22.17;55.46
68867;SHT30;56451;44.804;20.476;2023-06-19T04:02:10;22.17;55.47
68867;SHT30;56451;44.804;20.476;2023-06-19T04:04:36;22.23;55.02
68867;SHT30;56451;44.804;20.476;2023-06-19T04:07:04;22.23;55.20
68867;SHT30;56451;44.804;20.476;2023-06-19T04:09:30;22.26;55.27
68867;SHT30;56451;44.804;20.476;2023-06-19T04:11:56;22.28;55.15
68867;SHT30;56451;44.804;20.476;2023-06-19T04:14:22;22.30;54.99
68867;SHT30;56451;44.804;20.476;2023-06-19T04:16:49;22.32;55.12
68867;SHT30;56451;44.804;20.476;2023-06-19T04:19:15;22.32;54.98
68867;SHT30;56451;44.804;20.476;2023-06-19T04:21:42;22.32;55.01
68867;SHT30;56451;44.804;20.476;2023-06-19T04:24:07;22.36;55.21
68867;SHT30;56451;44.804;20.476;2023-06-19T04:26:35;22.37;55.04
68867;SHT30;56451;44.804;20.476;2023-06-19T04:29:02;22.37;54.91
68867;SHT30;56451;44.804;20.476;2023-06-19T04:31:28;22.49;54.66
68867;SHT30;56451;44.804;20.476;2023-06-19T04:33:55;22.47;54.72
68867;SHT30;56451;44.804;20.476;2023-06-19T04:36:22;22.49;54.65
68867;SHT30;56451;44.804;20.476;2023-06-19T04:38:48;22.52;54.41
68867;SHT30;56451;44.804;20.476;2023-06-19T04:41:17;22.56;54.41
68867;SHT30;56451;44.804;20.476;2023-06-19T04:43:43;22.60;54.18
68867;SHT30;56451;44.804;20.476;2023-06-19T04:46:09;22.57;54.20
68867;SHT30;56451;44.804;20.476;2023-06-19T04:48:34;22.59;54.32
68867;SHT30;56451;44.804;20.476;2023-06-19T04:51:02;22.63;54.21
68867;SHT30;56451;44.804;20.476;2023-06-19T04:53:28;22.64;54.14
68867;SHT30;56451;44.804;20.476;2023-06-19T04:55:54;22.71;54.12
68867;SHT30;56451;44.804;20.476;2023-06-19T04:58:24;22.75;53.22
68867;SHT30;56451;44.804;20.476;2023-06-19T05:00:49;22.77;53.16
68867;SHT30;56451;44.804;20.476;2023-06-19T05:03:19;22.78;52.94
68867;SHT30;56451;44.804;20.476;2023-06-19T05:05:47;22.80;53.18
68867;SHT30;56451;44.804;20.476;2023-06-19T05:08:13;22.81;53.17
68867;SHT30;56451;44.804;20.476;2023-06-19T05:10:39;22.84;53.24
68867;SHT30;56451;44.804;20.476;2023-06-19T05:13:05;22.88;53.35
68867;SHT30;56451;44.804;20.476;2023-06-19T05:15:31;22.94;53.14
68867;SHT30;56451;44.804;20.476;2023-06-19T05:17:57;23.00;52.60
68867;SHT30;56451;44.804;20.476;2023-06-19T05:20:23;23.08;52.38
68867;SHT30;56451;44.804;20.476;2023-06-19T05:22:48;23.11;52.23
68867;SHT30;56451;44.804;20.476;2023-06-19T05:25:14;23.18;52.10
68867;SHT30;56451;44.804;20.476;2023-06-19T05:27:40;23.18;52.32
68867;SHT30;56451;44.804;20.476;2023-06-19T05:30:07;23.21;52.29
68867;SHT30;56451;44.804;20.476;2023-06-19T05:32:33;23.28;52.29
68867;SHT30;56451;44.804;20.476;2023-06-19T05:34:59;23.33;51.93
68867;SHT30;56451;44.804;20.476;2023-06-19T05:37:25;23.39;51.94
68867;SHT30;56451;44.804;20.476;2023-06-19T05:39:52;23.42;52.06
68867;SHT30;56451;44.804;20.476;2023-06-19T05:42:18;23.45;52.08
68867;SHT30;56451;44.804;20.476;2023-06-19T05:44:44;23.51;51.96
68867;SHT30;56451;44.804;20.476;2023-06-19T05:47:10;23.59;51.62
68867;SHT30;56451;44.804;20.476;2023-06-19T05:49:37;23.58;51.68
68867;SHT30;56451;44.804;20.476;2023-06-19T05:52:03;23.63;51.12
68867;SHT30;56451;44.804;20.476;2023-06-19T05:54:29;23.67;51.08
68867;SHT30;56451;44.804;20.476;2023-06-19T05:56:55;23.69;50.70
68867;SHT30;56451;44.804;20.476;2023-06-19T05:59:21;23.70;50.36
68867;SHT30;56451;44.804;20.476;2023-06-19T06:01:47;23.76;50.93
68867;SHT30;56451;44.804;20.476;2023-06-19T06:04:13;23.77;50.57
68867;SHT30;56451;44.804;20.476;2023-06-19T06:06:39;23.80;50.36
68867;SHT30;56451;44.804;20.476;2023-06-19T06:09:05;23.86;49.87
68867;SHT30;56451;44.804;20.476;2023-06-19T06:11:31;23.90;49.64
68867;SHT30;56451;44.804;20.476;2023-06-19T06:13:57;23.96;49.56
68867;SHT30;56451;44.804;20.476;2023-06-19T06:16:22;24.00;49.40
68867;SHT30;56451;44.804;20.476;2023-06-19T06:18:48;24.04;49.37
68867;SHT30;56451;44.804;20.476;2023-06-19T06:21:14;24.06;49.92
68867;SHT30;56451;44.804;20.476;2023-06-19T06:23:41;24.13;49.87
68867;SHT30;56451;44.804;20.476;2023-06-19T06:26:07;24.18;49.06
68867;SHT30;56451;44.804;20.476;2023-06-19T06:28:32;24.25;48.88
68867;SHT30;56451;44.804;20.476;2023-06-19T06:30:58;24.28;48.82
68867;SHT30;56451;44.804;20.476;2023-06-19T06:33:24;24.37;48.83
68867;SHT30;56451;44.804;20.476;2023-06-19T06:35:50;24.37;49.17
68867;SHT30;56451;44.804;20.476;2023-06-19T06:38:17;24.38;49.28
68867;SHT30;56451;44.804;20.476;2023-06-19T06:40:43;24.45;49.39
68867;SHT30;56451;44.804;20.476;2023-06-19T06:43:09;24.48;49.50
68867;SHT30;56451;44.804;20.476;2023-06-19T06:45:35;24.58;49.62
68867;SHT30;56451;44.804;20.476;2023-06-19T06:48:04;24.54;50.37
68867;SHT30;56451;44.804;20.476;2023-06-19T06:50:32;24.57;51.18
68867;SHT30;56451;44.804;20.476;2023-06-19T06:52:58;24.62;50.37
68867;SHT30;56451;44.804;20.476;2023-06-19T06:55:24;24.65;49.17
68867;SHT30;56451;44.804;20.476;2023-06-19T06:57:50;24.71;49.39
68867;SHT30;56451;44.804;20.476;2023-06-19T07:00:16;24.75;47.88
68867;SHT30;56451;44.804;20.476;2023-06-19T07:02:43;24.75;48.19
68867;SHT30;56451;44.804;20.476;2023-06-19T07:05:10;24.78;47.92
68867;SHT30;56451;44.804;20.476;2023-06-19T07:07:37;24.83;47.50
68867;SHT30;56451;44.804;20.476;2023-06-19T07:10:03;24.86;47.32
68867;SHT30;56451;44.804;20.476;2023-06-19T07:12:29;24.89;46.60
68867;SHT30;56451;44.804;20.476;2023-06-19T07:14:55;24.95;46.85
68867;SHT30;56451;44.804;20.476;2023-06-19T07:17:22;24.99;45.39
68867;SHT30;56451;44.804;20.476;2023-06-19T07:19:47;24.99;45.81
68867;SHT30;56451;44.804;20.476;2023-06-19T07:22:14;25.02;46.87
68867;SHT30;56451;44.804;20.476;2023-06-19T07:24:40;25.06;47.07
68867;SHT30;56451;44.804;20.476;2023-06-19T07:27:07;25.13;47.52
68867;SHT30;56451;44.804;20.476;2023-06-19T07:29:33;25.12;47.63
68867;SHT30;56451;44.804;20.476;2023-06-19T07:31:59;25.17;47.61
68867;SHT30;56451;44.804;20.476;2023-06-19T07:34:26;25.22;47.01
68867;SHT30;56451;44.804;20.476;2023-06-19T07:36:52;25.26;46.97
68867;SHT30;56451;44.804;20.476;2023-06-19T07:39:18;25.31;46.66
68867;SHT30;56451;44.804;20.476;2023-06-19T07:41:44;25.33;46.57
68867;SHT30;56451;44.804;20.476;2023-06-19T07:44:11;25.37;46.63
68867;SHT30;56451;44.804;20.476;2023-06-19T07:46:37;25.37;46.53
68867;SHT30;56451;44.804;20.476;2023-06-19T07:49:03;25.40;46.77
68867;SHT30;56451;44.804;20.476;2023-06-19T07:51:29;25.48;46.76
68867;SHT30;56451;44.804;20.476;2023-06-19T07:53:55;25.51;46.94
68867;SHT30;56451;44.804;20.476;2023-06-19T07:56:21;25.54;47.04
68867;SHT30;56451;44.804;20.476;2023-06-19T07:58:47;25.63;47.16
68867;SHT30;56451;44.804;20.476;2023-06-19T08:01:13;25.70;47.11
68867;SHT30;56451;44.804;20.476;2023-06-19T08:03:41;25.74;46.14
68867;SHT30;56451;44.804;20.476;2023-06-19T08:06:07;25.80;45.95
68867;SHT30;56451;44.804;20.476;2023-06-19T08:08:33;25.85;45.97
68867;SHT30;56451;44.804;20.476;2023-06-19T08:11:00;25.88;45.71
68867;SHT30;56451;44.804;20.476;2023-06-19T08:13:26;25.95;45.80
68867;SHT30;56451;44.804;20.476;2023-06-19T08:15:52;26.06;45.68
68867;SHT30;56451;44.804;20.476;2023-06-19T08:18:17;26.12;45.92
68867;SHT30;56451;44.804;20.476;2023-06-19T08:20:43;26.19;45.91
68867;SHT30;56451;44.804;20.476;2023-06-19T08:23:09;26.26;45.88
68867;SHT30;56451;44.804;20.476;2023-06-19T08:25:35;26.32;45.97
68867;SHT30;56451;44.804;20.476;2023-06-19T08:28:01;26.37;45.68
68867;SHT30;56451;44.804;20.476;2023-06-19T08:30:27;26.46;45.62
68867;SHT30;56451;44.804;20.476;2023-06-19T08:32:53;26.61;45.68
68867;SHT30;56451;44.804;20.476;2023-06-19T08:35:18;26.74;45.20
68867;SHT30;56451;44.804;20.476;2023-06-19T08:37:45;26.77;44.61
68867;SHT30;56451;44.804;20.476;2023-06-19T08:40:12;26.86;44.00
68867;SHT30;56451;44.804;20.476;2023-06-19T08:42:38;26.90;43.67
68867;SHT30;56451;44.804;20.476;2023-06-19T08:45:06;26.92;44.13
68867;SHT30;56451;44.804;20.476;2023-06-19T08:47:32;26.95;44.51
68867;SHT30;56451;44.804;20.476;2023-06-19T08:49:59;27.04;44.66
68867;SHT30;56451;44.804;20.476;2023-06-19T08:52:25;27.11;43.31
68867;SHT30;56451;44.804;20.476;2023-06-19T08:54:51;27.12;43.51
68867;SHT30;56451;44.804;20.476;2023-06-19T08:57:17;27.14;43.79
68867;SHT30;56451;44.804;20.476;2023-06-19T08:59:50;27.18;44.09
68867;SHT30;56451;44.804;20.476;2023-06-19T09:02:17;27.22;44.52
68867;SHT30;56451;44.804;20.476;2023-06-19T09:04:43;27.22;44.01
68867;SHT30;56451;44.804;20.476;2023-06-19T09:07:12;27.24;44.20
68867;SHT30;56451;44.804;20.476;2023-06-19T09:09:45;27.25;44.06
68867;SHT30;56451;44.804;20.476;2023-06-19T09:12:14;27.25;43.29
68867;SHT30;56451;44.804;20.476;2023-06-19T09:14:45;27.31;43.07
68867;SHT30;56451;44.804;20.476;2023-06-19T09:17:19;27.34;42.88
68867;SHT30;56451;44.804;20.476;2023-06-19T09:19:53;27.34;43.39
68867;SHT30;56451;44.804;20.476;2023-06-19T09:22:22;27.38;44.52
68867;SHT30;56451;44.804;20.476;2023-06-19T09:24:48;27.42;44.90
68867;SHT30;56451;44.804;20.476;2023-06-19T09:27:18;27.47;44.70
68867;SHT30;56451;44.804;20.476;2023-06-19T09:29:46;27.49;43.76
68867;SHT30;56451;44.804;20.476;2023-06-19T09:32:22;27.52;42.81
68867;SHT30;56451;44.804;20.476;2023-06-19T09:34:50;27.53;41.85
68867;SHT30;56451;44.804;20.476;2023-06-19T09:37:25;27.53;41.85
68867;SHT30;56451;44.804;20.476;2023-06-19T09:39:54;27.60;42.37
68867;SHT30;56451;44.804;20.476;2023-06-19T09:42:27;27.66;42.11
68867;SHT30;56451;44.804;20.476;2023-06-19T09:45:00;27.71;41.31
68867;SHT30;56451;44.804;20.476;2023-06-19T09:47:36;27.76;39.99
68867;SHT30;56451;44.804;20.476;2023-06-19T09:50:03;27.77;39.50
68867;SHT30;56451;44.804;20.476;2023-06-19T09:52:30;27.80;39.14
68867;SHT30;56451;44.804;20.476;2023-06-19T09:55:08;27.86;38.38
68867;SHT30;56451;44.804;20.476;2023-06-19T09:57:36;27.87;38.29
68867;SHT30;56451;44.804;20.476;2023-06-19T10:00:06;27.92;38.87
68867;SHT30;56451;44.804;20.476;2023-06-19T10:02:41;27.90;37.55
68867;SHT30;56451;44.804;20.476;2023-06-19T10:05:07;27.94;37.64
68867;SHT30;56451;44.804;20.476;2023-06-19T10:07:38;27.96;39.45
68867;SHT30;56451;44.804;20.476;2023-06-19T10:10:08;28.03;39.75
68867;SHT30;56451;44.804;20.476;2023-06-19T10:12:41;28.11;39.01
68867;SHT30;56451;44.804;20.476;2023-06-19T10:15:21;28.11;37.91
68867;SHT30;56451;44.804;20.476;2023-06-19T10:18:04;28.15;38.01
68867;SHT30;56451;44.804;20.476;2023-06-19T10:20:32;28.17;37.90
68867;SHT30;56451;44.804;20.476;2023-06-19T10:25:29;28.20;37.57
68867;SHT30;56451;44.804;20.476;2023-06-19T10:27:56;28.24;37.33
68867;SHT30;56451;44.804;20.476;2023-06-19T10:30:22;28.31;37.28
68867;SHT30;56451;44.804;20.476;2023-06-19T10:32:48;28.34;37.45
68867;SHT30;56451;44.804;20.476;2023-06-19T10:35:16;28.41;37.50
68867;SHT30;56451;44.804;20.476;2023-06-19T10:37:43;28.44;37.63
68867;SHT30;56451;44.804;20.476;2023-06-19T10:40:11;28.49;37.92
68867;SHT30;56451;44.804;20.476;2023-06-19T10:42:41;28.59;38.03
68867;SHT30;56451;44.804;20.476;2023-06-19T10:45:09;28.65;37.82
68867;SHT30;56451;44.804;20.476;2023-06-19T10:47:37;28.69;37.49
68867;SHT30;56451;44.804;20.476;2023-06-19T10:50:03;28.69;37.97
68867;SHT30;56451;44.804;20.476;2023-06-19T10:52:29;28.76;38.16
68867;SHT30;56451;44.804;20.476;2023-06-19T10:54:57;28.83;37.88
68867;SHT30;56451;44.804;20.476;2023-06-19T10:57:30;28.89;37.42
68867;SHT30;56451;44.804;20.476;2023-06-19T10:59:57;28.90;38.20
68867;SHT30;56451;44.804;20.476;2023-06-19T11:02:24;28.90;38.05
68867;SHT30;56451;44.804;20.476;2023-06-19T11:04:57;28.88;38.14
68867;SHT30;56451;44.804;20.476;2023-06-19T11:07:22;28.93;37.93
68867;SHT30;56451;44.804;20.476;2023-06-19T11:09:49;29.00;38.38
68867;SHT30;56451;44.804;20.476;2023-06-19T11:12:21;28.93;38.42
68867;SHT30;56451;44.804;20.476;2023-06-19T11:14:50;28.99;38.39
68867;SHT30;56451;44.804;20.476;2023-06-19T11:17:17;29.03;38.47
68867;SHT30;56451;44.804;20.476;2023-06-19T11:19:50;29.11;38.36
68867;SHT30;56451;44.804;20.476;2023-06-19T11:22:16;29.17;37.08
68867;SHT30;56451;44.804;20.476;2023-06-19T11:24:44;29.20;37.24
68867;SHT30;56451;44.804;20.476;2023-06-19T11:27:21;29.19;37.00
68867;SHT30;56451;44.804;20.476;2023-06-19T11:29:56;29.23;36.18
68867;SHT30;56451;44.804;20.476;2023-06-19T11:32:30;29.24;35.85
68867;SHT30;56451;44.804;20.476;2023-06-19T11:35:05;29.29;35.76
68867;SHT30;56451;44.804;20.476;2023-06-19T11:37:33;29.37;36.00
68867;SHT30;56451;44.804;20.476;2023-06-19T11:40:01;29.41;35.46
68867;SHT30;56451;44.804;20.476;2023-06-19T11:42:44;29.53;35.92
68867;SHT30;56451;44.804;20.476;2023-06-19T11:45:11;29.61;35.56
68867;SHT30;56451;44.804;20.476;2023-06-19T11:47:37;29.71;36.46
68867;SHT30;56451;44.804;20.476;2023-06-19T11:50:04;29.74;36.92
68867;SHT30;56451;44.804;20.476;2023-06-19T11:52:31;29.75;36.71
68867;SHT30;56451;44.804;20.476;2023-06-19T11:54:57;29.72;36.68
68867;SHT30;56451;44.804;20.476;2023-06-19T11:57:23;29.78;36.85
68867;SHT30;56451;44.804;20.476;2023-06-19T11:59:49;29.88;36.35
68867;SHT30;56451;44.804;20.476;2023-06-19T12:02:15;29.90;36.20
68867;SHT30;56451;44.804;20.476;2023-06-19T12:04:41;29.89;36.24
68867;SHT30;56451;44.804;20.476;2023-06-19T12:07:07;29.92;35.30
68867;SHT30;56451;44.804;20.476;2023-06-19T12:09:34;29.92;35.32
68867;SHT30;56451;44.804;20.476;2023-06-19T12:12:00;29.98;35.02
68867;SHT30;56451;44.804;20.476;2023-06-19T12:14:26;30.04;34.88
68867;SHT30;56451;44.804;20.476;2023-06-19T12:16:53;30.06;35.27
68867;SHT30;56451;44.804;20.476;2023-06-19T12:19:18;30.15;35.31
68867;SHT30;56451;44.804;20.476;2023-06-19T12:21:45;30.16;35.51
68867;SHT30;56451;44.804;20.476;2023-06-19T12:24:10;30.22;35.51
68867;SHT30;56451;44.804;20.476;2023-06-19T12:26:37;30.32;36.00
68867;SHT30;56451;44.804;20.476;2023-06-19T12:29:03;30.39;35.19
68867;SHT30;56451;44.804;20.476;2023-06-19T12:31:31;30.50;35.17
68867;SHT30;56451;44.804;20.476;2023-06-19T12:33:57;30.60;34.51
68867;SHT30;56451;44.804;20.476;2023-06-19T12:36:22;30.63;34.75
68867;SHT30;56451;44.804;20.476;2023-06-19T12:38:49;30.63;34.64
68867;SHT30;56451;44.804;20.476;2023-06-19T12:41:15;30.68;34.66
68867;SHT30;56451;44.804;20.476;2023-06-19T12:43:41;30.77;34.75
68867;SHT30;56451;44.804;20.476;2023-06-19T12:46:07;30.83;34.17
68867;SHT30;56451;44.804;20.476;2023-06-19T12:48:33;30.83;33.93
68867;SHT30;56451;44.804;20.476;2023-06-19T12:50:59;30.87;33.42
68867;SHT30;56451;44.804;20.476;2023-06-19T12:53:25;30.96;33.54
68867;SHT30;56451;44.804;20.476;2023-06-19T12:55:59;31.01;33.11
68867;SHT30;56451;44.804;20.476;2023-06-19T12:58:25;30.96;32.04
68867;SHT30;56451;44.804;20.476;2023-06-19T13:00:53;30.92;32.70
68867;SHT30;56451;44.804;20.476;2023-06-19T13:03:19;30.88;32.49
68867;SHT30;56451;44.804;20.476;2023-06-19T13:05:46;30.88;32.26
68867;SHT30;56451;44.804;20.476;2023-06-19T13:08:12;30.95;32.61
68867;SHT30;56451;44.804;20.476;2023-06-19T13:10:38;31.08;32.71
68867;SHT30;56451;44.804;20.476;2023-06-19T13:13:04;31.21;33.02
68867;SHT30;56451;44.804;20.476;2023-06-19T13:15:31;31.33;32.98
68867;SHT30;56451;44.804;20.476;2023-06-19T13:17:59;31.46;32.65
68867;SHT30;56451;44.804;20.476;2023-06-19T13:20:25;31.52;32.38
68867;SHT30;56451;44.804;20.476;2023-06-19T13:22:52;31.59;32.43
68867;SHT30;56451;44.804;20.476;2023-06-19T13:25:19;31.58;32.08
68867;SHT30;56451;44.804;20.476;2023-06-19T13:27:45;31.56;31.90
68867;SHT30;56451;44.804;20.476;2023-06-19T13:30:12;31.62;32.29
68867;SHT30;56451;44.804;20.476;2023-06-19T13:32:38;31.65;32.57
68867;SHT30;56451;44.804;20.476;2023-06-19T13:35:07;31.65;32.27
68867;SHT30;56451;44.804;20.476;2023-06-19T13:37:36;31.66;32.24
68867;SHT30;56451;44.804;20.476;2023-06-19T13:40:05;31.74;32.06
68867;SHT30;56451;44.804;20.476;2023-06-19T13:42:31;31.83;31.92
68867;SHT30;56451;44.804;20.476;2023-06-19T13:44:57;31.81;32.15
68867;SHT30;56451;44.804;20.476;2023-06-19T13:47:23;31.84;31.73
68867;SHT30;56451;44.804;20.476;2023-06-19T13:49:52;31.89;32.06
68867;SHT30;56451;44.804;20.476;2023-06-19T13:52:18;31.93;32.28
68867;SHT30;56451;44.804;20.476;2023-06-19T13:54:44;31.98;32.44
68867;SHT30;56451;44.804;20.476;2023-06-19T13:57:10;32.10;32.02
68867;SHT30;56451;44.804;20.476;2023-06-19T13:59:37;32.13;31.84
68867;SHT30;56451;44.804;20.476;2023-06-19T14:02:03;32.18;31.26
68867;SHT30;56451;44.804;20.476;2023-06-19T14:04:29;32.24;31.39
68867;SHT30;56451;44.804;20.476;2023-06-19T14:06:55;32.29;31.20
68867;SHT30;56451;44.804;20.476;2023-06-19T14:09:21;32.37;31.02
68867;SHT30;56451;44.804;20.476;2023-06-19T14:11:47;32.38;30.31
68867;SHT30;56451;44.804;20.476;2023-06-19T14:14:13;32.52;30.42
68867;SHT30;56451;44.804;20.476;2023-06-19T14:16:39;32.64;30.47
68867;SHT30;56451;44.804;20.476;2023-06-19T14:19:05;32.72;30.15
68867;SHT30;56451;44.804;20.476;2023-06-19T14:21:31;32.85;30.12
68867;SHT30;56451;44.804;20.476;2023-06-19T14:23:57;32.85;30.10
68867;SHT30;56451;44.804;20.476;2023-06-19T14:26:23;32.85;30.46
68867;SHT30;56451;44.804;20.476;2023-06-19T14:28:49;32.92;30.48
68867;SHT30;56451;44.804;20.476;2023-06-19T23:56:04;25.45;49.31
68867;SHT30;56451;44.804;20.476;2023-06-19T23:58:30;25.47;49.29
